ADDS TAF Board (Experimental) INFO

IDs: Format: Expanded Condensed

Updated at: 2030 UTC 24 Oct 2014

KMSP - Minneapolis-St Paul, MN, US

Issued at 1918 UTC 24 Oct 2014
Time2002Z24/21Z24/22Z24/23Z25/00Z25/01Z25/02Z25/03Z25/04Z25/05Z25/06Z25/07Z25/08Z25/09Z
TypeOBSPRVLPRVLPRVLPRVLPRVLPRVLPRVLPRVLPRVLPRVLPRVLPRVLPRVL
VIS7>6>6>6>6>6>6>6>6>6>6>6>6>6
CIG250--------------------------
CoverBKNSCTSCTSCTSCTSCTSCTSCTSCTSCTSCTSCTSCTSCT
FltCatVFRVFRVFRVFRVFRVFRVFRVFRVFRVFRVFRVFRVFRVFR
WX----------------------------
WDirVRB230230230230230230260260260260260260260
WSpd38888886666666
WGst----------------------------
R04/22
XWndVRB1111113333333
HWndVRB-8-8-8-8-8-8-5-5-5-5-5-5-5
R12/30
XWndVRB-8-8-8-8-8-8-4-4-4-4-4-4-4
HWndVRB-3-3-3-3-3-3-5-5-5-5-5-5-5
R17/35
XWndVRB-7-7-7-7-7-7-6-6-6-6-6-6-6
HWndVRB4444440000000
Raw TAF
KMSP 241918Z 2419/2524 18005KT P6SM BKN023
  FM242000 23008KT P6SM SCT250
  FM250300 26006KT P6SM SCT250
  FM251000 30006KT P6SM SCT250
  FM251700 30011G18KT P6SM FEW250


Raw METAR
KMSP 242002Z VRB03KT 7SM SCT023 BKN250 18/12 A2982 RMK AO2 T01780122
KMSP 241953Z 19005KT 7SM BKN023 BKN250 18/12 A2982 RMK AO2 SLP099 T01780122

TAF Board Legend

Hazard VFR MVFR IFR LIFR
Visibility (sm) >5 3≤X≤5 1≤X<3 <1
Ceiling (100 ft) >30 10≤X≤30 5≤X<10 <5
Wind Speed (kt) <10 10≤X<20 20≤X<30 ≥30
Wind Gust (kt) <15 15≤X<25 25≤X<35 ≥35
Weather No Wx Reported VCTS,-TS,-FZRA TS,FZRA +TS,+FZRA


Page loaded:  20:30 UTC  |   01:30 PM Pacific  |   02:30 PM Mountain  |   03:30 PM Central  |   04:30 PM Eastern

 

ADVISORIES

FORECASTS

FORECASTS

OBSERVATIONS

USER TOOLS

ABOUT US